createdAt,value
2023-03-13T00:01:51.494Z,5.38
2023-03-13T00:04:18.659Z,5.23
2023-03-13T00:06:45.531Z,5.10
2023-03-13T00:09:14.605Z,5.00
2023-03-13T00:11:41.361Z,4.85
2023-03-13T00:14:08.526Z,4.65
2023-03-13T00:16:37.426Z,4.58
2023-03-13T00:19:05.926Z,4.55
2023-03-13T00:21:33.457Z,4.51
2023-03-13T00:24:00.561Z,4.46
2023-03-13T00:26:28.567Z,4.38
2023-03-13T00:28:55.719Z,4.32
2023-03-13T00:31:28.118Z,4.31
2023-03-13T00:33:58.584Z,4.28
2023-03-13T00:36:28.425Z,4.31
2023-03-13T00:38:56.686Z,4.22
2023-03-13T00:41:26.741Z,4.36
2023-03-13T00:43:53.888Z,4.57
2023-03-13T00:46:23.642Z,4.98
2023-03-13T00:48:51.176Z,5.12
2023-03-13T00:51:19.835Z,4.95
2023-03-13T00:53:48.472Z,4.61
2023-03-13T00:56:16.967Z,4.29
2023-03-13T00:58:45.528Z,4.13
2023-03-13T01:01:13.902Z,3.96
2023-03-13T01:03:42.681Z,3.72
2023-03-13T01:06:12.891Z,3.57
2023-03-13T01:08:39.905Z,3.46
2023-03-13T01:11:09.527Z,3.38
2023-03-13T01:13:36.921Z,3.32
2023-03-13T01:16:08.059Z,3.32
2023-03-13T01:18:36.034Z,3.38
2023-03-13T01:21:03.073Z,3.39
2023-03-13T01:23:30.144Z,3.48
2023-03-13T01:25:57.752Z,3.49
2023-03-13T01:28:26.281Z,3.46
2023-03-13T01:30:54.139Z,3.41
2023-03-13T01:33:20.721Z,3.37
2023-03-13T01:35:47.885Z,3.30
2023-03-13T01:38:14.905Z,3.18
2023-03-13T01:40:49.355Z,3.15
2023-03-13T01:43:26.384Z,3.07
2023-03-13T01:46:17.920Z,2.99
2023-03-13T01:49:23.574Z,2.91
2023-03-13T01:52:03.954Z,2.88
2023-03-13T01:54:40.549Z,2.86
2023-03-13T01:57:12.273Z,2.81
2023-03-13T01:59:47.474Z,2.76
2023-03-13T02:02:15.940Z,2.73
2023-03-13T02:04:46.786Z,2.73
2023-03-13T02:07:20.157Z,2.76
2023-03-13T02:09:52.192Z,2.76
2023-03-13T02:12:27.215Z,2.73
2023-03-13T02:14:55.283Z,2.73
2023-03-13T02:17:22.649Z,2.77
2023-03-13T02:19:52.120Z,2.74
2023-03-13T02:22:21.586Z,2.72
2023-03-13T02:24:58.555Z,2.72
2023-03-13T02:27:25.656Z,2.81
2023-03-13T02:29:53.156Z,2.77
2023-03-13T02:32:20.288Z,2.72
2023-03-13T02:34:50.073Z,2.74
2023-03-13T02:37:18.441Z,2.73
2023-03-13T02:39:50.179Z,2.71
2023-03-13T02:42:19.576Z,2.75
2023-03-13T02:44:48.040Z,2.73
2023-03-13T02:47:23.046Z,2.72
2023-03-13T02:49:51.100Z,2.73
2023-03-13T02:52:26.327Z,2.83
2023-03-13T02:54:58.795Z,2.89
2023-03-13T02:57:26.638Z,2.85
2023-03-13T02:59:53.222Z,2.83
2023-03-13T03:02:20.052Z,2.86
2023-03-13T03:04:46.779Z,2.99
2023-03-13T03:07:13.404Z,3.00
2023-03-13T03:09:40.278Z,2.95
2023-03-13T03:12:11.130Z,3.14
2023-03-13T03:14:38.538Z,3.07
2023-03-13T03:17:05.865Z,3.21
2023-03-13T03:19:32.548Z,3.10
2023-03-13T03:22:00.237Z,3.04
2023-03-13T03:24:27.337Z,3.03
2023-03-13T03:26:54.012Z,3.00
2023-03-13T03:29:25.670Z,3.02
2023-03-13T03:31:54.624Z,3.06
2023-03-13T03:34:21.440Z,3.05
2023-03-13T03:36:48.660Z,3.03
2023-03-13T03:39:15.432Z,2.98
2023-03-13T03:41:42.450Z,3.00
2023-03-13T03:44:10.572Z,2.98
2023-03-13T03:46:58.716Z,2.97
2023-03-13T03:49:28.133Z,2.97
2023-03-13T03:51:55.027Z,2.95
2023-03-13T03:54:29.291Z,2.96
2023-03-13T03:56:56.407Z,3.00
2023-03-13T03:59:23.063Z,3.04
2023-03-13T04:02:03.343Z,3.03
2023-03-13T04:04:31.712Z,2.99
2023-03-13T04:07:06.530Z,2.97
2023-03-13T04:09:34.277Z,2.93
2023-03-13T04:12:02.763Z,2.92
2023-03-13T04:14:34.197Z,2.91
2023-03-13T04:17:04.470Z,2.88
2023-03-13T04:19:31.204Z,2.90
2023-03-13T04:21:58.205Z,2.86
2023-03-13T04:24:24.990Z,2.84
2023-03-13T04:26:51.766Z,2.83
2023-03-13T04:29:20.160Z,2.89
2023-03-13T04:31:59.958Z,2.89
2023-03-13T04:34:42.995Z,2.89
2023-03-13T04:37:19.892Z,2.87
2023-03-13T04:40:21.784Z,2.88
2023-03-13T04:43:02.650Z,2.81
2023-03-13T04:45:48.291Z,2.83
2023-03-13T04:48:33.514Z,2.89
2023-03-13T04:51:18.446Z,2.89
2023-03-13T04:54:08.720Z,2.92
2023-03-13T04:56:58.880Z,3.03
2023-03-13T04:59:34.024Z,3.09
2023-03-13T05:02:00.701Z,3.07
2023-03-13T05:04:48.735Z,3.13
2023-03-13T05:07:28.585Z,3.21
2023-03-13T05:10:31.009Z,3.25
2023-03-13T05:13:16.281Z,3.22
2023-03-13T05:16:09.336Z,3.51
2023-03-13T05:18:57.886Z,3.96
2023-03-13T05:22:00.111Z,4.47
2023-03-13T05:24:47.045Z,4.75
2023-03-13T05:27:52.742Z,4.94
2023-03-13T05:30:52.761Z,4.99
2023-03-13T05:33:36.850Z,5.10
2023-03-13T05:36:11.656Z,5.35
2023-03-13T05:38:44.809Z,5.56
2023-03-13T05:41:34.508Z,5.72
2023-03-13T05:44:17.803Z,5.94
2023-03-13T05:47:04.244Z,6.22
2023-03-13T05:49:30.928Z,6.25
2023-03-13T05:52:06.784Z,6.28
2023-03-13T05:54:59.777Z,6.47
2023-03-13T05:57:52.427Z,6.68
2023-03-13T06:00:38.230Z,6.79
2023-03-13T06:03:24.858Z,7.05
2023-03-13T06:06:03.098Z,7.14
2023-03-13T06:08:37.522Z,7.16
2023-03-13T06:11:04.998Z,7.30
2023-03-13T06:13:33.069Z,7.27
2023-03-13T06:16:05.583Z,7.32
2023-03-13T06:18:45.792Z,7.29
2023-03-13T06:21:12.726Z,7.11
2023-03-13T06:23:39.387Z,6.75
2023-03-13T06:26:06.143Z,6.86
2023-03-13T06:28:32.990Z,6.94
2023-03-13T06:31:04.719Z,6.81
2023-03-13T06:33:31.657Z,6.78
2023-03-13T06:36:00.564Z,6.75
2023-03-13T06:38:28.247Z,6.82
2023-03-13T06:40:55.027Z,6.82
2023-03-13T06:43:21.803Z,6.74
2023-03-13T06:45:48.831Z,6.88
2023-03-13T06:48:15.382Z,6.92
2023-03-13T06:50:42.268Z,7.06
2023-03-13T06:53:16.708Z,7.14
2023-03-13T06:55:44.162Z,7.22
2023-03-13T06:58:21.857Z,7.27
2023-03-13T07:00:57.760Z,7.27
2023-03-13T07:03:24.737Z,7.33
2023-03-13T07:05:58.486Z,7.48
2023-03-13T07:08:25.964Z,7.51
2023-03-13T07:10:53.983Z,7.62
2023-03-13T07:13:21.871Z,7.68
2023-03-13T07:15:48.777Z,7.87
2023-03-13T07:18:16.036Z,7.94
2023-03-13T07:20:42.900Z,7.79
2023-03-13T07:23:09.768Z,7.48
2023-03-13T07:25:36.376Z,7.14
2023-03-13T07:28:03.060Z,6.97
2023-03-13T07:30:29.773Z,7.05
2023-03-13T07:32:56.402Z,7.38
2023-03-13T07:35:23.051Z,7.66
2023-03-13T07:37:49.746Z,7.98
2023-03-13T07:40:16.489Z,8.27
2023-03-13T07:42:43.082Z,8.34
2023-03-13T07:45:10.058Z,8.38
2023-03-13T07:47:36.841Z,8.45
2023-03-13T07:50:03.738Z,8.60
2023-03-13T07:52:30.344Z,8.73
2023-03-13T07:54:56.999Z,8.82
2023-03-13T07:57:23.991Z,8.92
2023-03-13T07:59:50.511Z,9.09
2023-03-13T08:02:17.744Z,9.38
2023-03-13T08:04:44.462Z,9.53
2023-03-13T08:07:11.979Z,9.69
2023-03-13T08:09:39.058Z,9.81
2023-03-13T08:12:06.421Z,9.76
2023-03-13T08:14:33.073Z,9.87
2023-03-13T08:16:59.787Z,9.79
2023-03-13T08:19:26.460Z,9.78
2023-03-13T08:21:53.029Z,9.76
2023-03-13T08:24:21.984Z,9.42
2023-03-13T08:26:48.761Z,9.39
2023-03-13T08:29:15.403Z,9.20
2023-03-13T08:31:48.038Z,9.10
2023-03-13T08:34:16.129Z,9.09
2023-03-13T08:36:43.046Z,9.21
2023-03-13T08:39:18.299Z,9.33
2023-03-13T08:41:45.521Z,9.56
2023-03-13T08:44:14.046Z,9.79
2023-03-13T08:46:41.020Z,10.03
2023-03-13T08:49:08.621Z,10.17
2023-03-13T08:51:36.242Z,10.41
2023-03-13T08:54:04.170Z,10.54
2023-03-13T08:56:31.755Z,10.63
2023-03-13T08:59:01.029Z,10.77
2023-03-13T09:01:33.473Z,11.06
2023-03-13T09:04:03.818Z,11.25
2023-03-13T09:06:30.717Z,11.15
2023-03-13T09:08:58.442Z,11.08
2023-03-13T09:11:25.712Z,11.18
2023-03-13T09:13:53.107Z,11.20
2023-03-13T09:16:22.932Z,11.68
2023-03-13T09:18:50.764Z,12.19
2023-03-13T09:21:22.864Z,12.39
2023-03-13T09:23:50.404Z,12.94
2023-03-13T09:26:20.002Z,13.18
2023-03-13T09:28:48.744Z,13.09
2023-03-13T09:31:17.932Z,13.66
2023-03-13T09:33:45.822Z,13.57
2023-03-13T09:36:13.160Z,13.58
2023-03-13T09:38:40.242Z,13.95
2023-03-13T09:41:24.022Z,14.21
2023-03-13T09:43:57.437Z,14.29
2023-03-13T09:46:39.763Z,14.24
2023-03-13T09:49:23.260Z,14.13
2023-03-13T09:51:56.518Z,14.04
2023-03-13T09:54:33.234Z,14.31
2023-03-13T09:57:11.962Z,14.62
2023-03-13T09:59:46.822Z,14.61
2023-03-13T10:02:20.206Z,14.31
2023-03-13T10:04:52.275Z,14.24
2023-03-13T10:07:20.937Z,14.43
2023-03-13T10:09:47.529Z,14.51
2023-03-13T10:12:21.480Z,14.94
2023-03-13T10:14:54.320Z,15.50
2023-03-13T10:17:38.419Z,16.25
2023-03-13T10:20:21.241Z,16.10
2023-03-13T10:22:52.677Z,15.55
2023-03-13T10:25:28.352Z,15.52
2023-03-13T10:27:55.496Z,15.94
2023-03-13T10:30:27.104Z,15.92
2023-03-13T10:32:58.366Z,15.87
2023-03-13T10:35:33.271Z,16.00
2023-03-13T10:38:04.650Z,16.26
2023-03-13T10:40:31.807Z,16.49
2023-03-13T10:43:22.538Z,16.17
2023-03-13T10:45:49.281Z,16.36
2023-03-13T10:48:20.997Z,16.28
2023-03-13T10:50:50.156Z,16.70
2023-03-13T10:53:25.820Z,17.07
2023-03-13T10:55:54.368Z,17.58
2023-03-13T10:58:37.354Z,18.27
2023-03-13T11:01:28.921Z,19.06
2023-03-13T11:03:57.215Z,19.28
2023-03-13T11:06:25.405Z,19.10
2023-03-13T11:09:03.309Z,19.24
2023-03-13T11:11:30.895Z,19.51
2023-03-13T11:14:14.944Z,20.08
2023-03-13T11:16:47.527Z,20.18
2023-03-13T11:19:14.115Z,19.77
2023-03-13T11:22:11.255Z,20.02
2023-03-13T11:25:18.715Z,19.87
2023-03-13T11:28:03.785Z,19.74
2023-03-13T11:30:53.311Z,19.86
2023-03-13T11:33:40.895Z,19.91
2023-03-13T11:36:19.298Z,19.87
2023-03-13T11:38:55.713Z,20.12
2023-03-13T11:41:34.166Z,20.45
2023-03-13T11:44:19.889Z,20.81
2023-03-13T11:47:23.376Z,21.32
2023-03-13T11:49:52.653Z,21.09
2023-03-13T11:52:34.195Z,20.86
2023-03-13T11:55:13.255Z,20.03
2023-03-13T11:58:01.422Z,20.43
2023-03-13T12:00:40.325Z,21.03
2023-03-13T12:03:28.203Z,21.19
2023-03-13T12:06:00.208Z,21.13
2023-03-13T12:08:35.983Z,21.29
2023-03-13T12:11:21.690Z,21.12
2023-03-13T12:13:59.586Z,20.81
2023-03-13T12:16:54.476Z,20.41
2023-03-13T12:19:30.667Z,20.15
2023-03-13T12:22:13.834Z,20.08
2023-03-13T12:24:50.345Z,20.30
2023-03-13T12:27:33.046Z,20.60
2023-03-13T12:30:05.810Z,21.09
2023-03-13T12:32:40.663Z,21.58
2023-03-13T12:35:46.082Z,22.15
2023-03-13T12:38:28.634Z,22.52
2023-03-13T12:41:27.498Z,22.77
2023-03-13T12:44:07.659Z,21.99
2023-03-13T12:46:44.831Z,22.61
2023-03-13T12:49:48.912Z,23.27
2023-03-13T12:52:21.903Z,23.88
2023-03-13T12:54:58.527Z,23.62
2023-03-13T12:57:46.540Z,23.52
2023-03-13T13:00:18.433Z,24.22
2023-03-13T13:02:45.651Z,24.38
2023-03-13T13:05:21.830Z,24.88
2023-03-13T13:07:56.149Z,24.58
2023-03-13T13:10:26.398Z,24.48
2023-03-13T13:13:14.855Z,24.55
2023-03-13T13:15:48.373Z,24.91
2023-03-13T13:18:24.189Z,24.47
2023-03-13T13:21:02.939Z,23.69
2023-03-13T13:23:53.857Z,23.88
2023-03-13T13:26:26.676Z,24.11
2023-03-13T13:28:54.801Z,23.44
2023-03-13T13:31:52.403Z,23.34
2023-03-13T13:34:55.905Z,22.92
2023-03-13T13:37:22.661Z,23.74
2023-03-13T13:39:52.511Z,23.54
2023-03-13T13:42:31.491Z,23.38
2023-03-13T13:45:05.653Z,23.88
2023-03-13T13:47:33.786Z,24.09
2023-03-13T13:50:01.260Z,24.09
2023-03-13T13:52:36.005Z,24.09
2023-03-13T13:55:23.595Z,24.21
2023-03-13T13:57:59.191Z,23.94
2023-03-13T14:00:29.101Z,24.11
2023-03-13T14:02:57.549Z,24.72
2023-03-13T14:05:30.431Z,24.68
2023-03-13T14:08:30.452Z,24.90
2023-03-13T14:11:06.311Z,24.49
2023-03-13T14:13:33.179Z,25.02
2023-03-13T14:16:24.909Z,24.62
2023-03-13T14:18:52.213Z,25.39
2023-03-13T14:21:25.641Z,25.10
2023-03-13T14:23:52.602Z,24.51
2023-03-13T14:26:20.897Z,25.24
2023-03-13T14:29:08.099Z,25.60
2023-03-13T14:31:36.581Z,24.56
2023-03-13T14:34:05.899Z,25.22
2023-03-13T14:36:46.301Z,24.47
2023-03-13T14:39:19.346Z,24.17
2023-03-13T14:41:48.532Z,23.78
2023-03-13T14:44:26.497Z,23.97
2023-03-13T14:46:56.991Z,23.76
2023-03-13T14:49:26.945Z,24.01
2023-03-13T14:52:03.174Z,23.36
2023-03-13T14:54:35.200Z,23.72
2023-03-13T14:57:17.826Z,23.56
2023-03-13T14:59:44.553Z,23.16
2023-03-13T15:02:24.184Z,22.19
2023-03-13T15:04:53.938Z,21.60
2023-03-13T15:07:21.472Z,21.20
2023-03-13T15:09:49.974Z,20.81
2023-03-13T15:12:22.615Z,20.41
2023-03-13T15:14:52.413Z,19.87
2023-03-13T15:17:25.040Z,19.78
2023-03-13T15:19:57.289Z,19.51
2023-03-13T15:22:42.063Z,19.11
2023-03-13T15:25:19.372Z,19.09
2023-03-13T15:27:46.795Z,19.17
2023-03-13T15:30:23.277Z,19.03
2023-03-13T15:32:50.285Z,19.06
2023-03-13T15:35:23.542Z,18.97
2023-03-13T15:37:50.322Z,19.04
2023-03-13T15:40:17.520Z,18.79
2023-03-13T15:42:44.355Z,18.69
2023-03-13T15:45:11.402Z,18.95
2023-03-13T15:47:38.285Z,19.10
2023-03-13T15:50:11.125Z,19.05
2023-03-13T15:52:37.918Z,19.19
2023-03-13T15:55:07.189Z,19.31
2023-03-13T15:57:42.596Z,19.54
2023-03-13T16:00:33.447Z,19.47
2023-03-13T16:03:00.502Z,18.88
2023-03-13T16:05:27.197Z,18.29
2023-03-13T16:07:53.890Z,17.90
2023-03-13T16:10:27.345Z,17.48
2023-03-13T16:12:55.261Z,17.33
2023-03-13T16:15:21.883Z,17.24
2023-03-13T16:17:48.430Z,17.12
2023-03-13T16:20:20.896Z,17.00
2023-03-13T16:22:48.190Z,16.87
2023-03-13T16:25:16.653Z,16.84
2023-03-13T16:27:43.214Z,16.81
2023-03-13T16:30:21.449Z,16.80
2023-03-13T16:32:48.235Z,16.66
2023-03-13T16:35:15.030Z,16.68
2023-03-13T16:37:41.776Z,16.54
2023-03-13T16:40:15.693Z,16.45
2023-03-13T16:42:42.522Z,16.43
2023-03-13T16:45:09.694Z,16.39
2023-03-13T16:47:36.544Z,16.29
2023-03-13T16:50:10.984Z,16.19
2023-03-13T16:52:37.512Z,16.03
2023-03-13T16:55:04.433Z,15.99
2023-03-13T16:57:31.389Z,16.00
2023-03-13T16:59:58.012Z,15.83
2023-03-13T17:02:24.671Z,15.65
2023-03-13T17:04:51.264Z,15.45
2023-03-13T17:07:24.338Z,15.34
2023-03-13T17:09:51.719Z,15.30
2023-03-13T17:12:19.142Z,15.25
2023-03-13T17:14:46.365Z,15.18
2023-03-13T17:17:19.697Z,14.95
2023-03-13T17:19:46.800Z,14.96
2023-03-13T17:22:15.624Z,14.90
2023-03-13T17:24:43.915Z,14.68
2023-03-13T17:27:13.681Z,14.69
2023-03-13T17:29:40.455Z,14.76
2023-03-13T17:32:08.416Z,14.51
2023-03-13T17:34:35.028Z,14.62
2023-03-13T17:37:04.707Z,14.30
2023-03-13T17:39:31.770Z,14.24
2023-03-13T17:42:00.258Z,14.34
2023-03-13T17:44:26.828Z,14.06
2023-03-13T17:46:53.464Z,14.13
2023-03-13T17:49:20.698Z,14.01
2023-03-13T17:51:49.887Z,13.77
2023-03-13T17:54:16.751Z,13.74
2023-03-13T17:56:44.009Z,13.72
2023-03-13T17:59:13.703Z,13.70
2023-03-13T18:01:41.257Z,13.66
2023-03-13T18:04:08.400Z,13.72
2023-03-13T18:06:39.394Z,13.49
2023-03-13T18:09:12.258Z,13.28
2023-03-13T18:11:39.029Z,13.15
2023-03-13T18:14:06.589Z,13.13
2023-03-13T18:16:48.156Z,13.18
2023-03-13T18:19:17.866Z,13.13
2023-03-13T18:21:45.710Z,13.00
2023-03-13T18:24:14.148Z,12.95
2023-03-13T18:26:42.722Z,13.07
2023-03-13T18:29:20.313Z,12.96
2023-03-13T18:31:48.093Z,12.95
2023-03-13T18:34:15.261Z,12.98
2023-03-13T18:36:42.725Z,12.83
2023-03-13T18:39:14.501Z,12.73
2023-03-13T18:41:41.331Z,12.55
2023-03-13T18:44:07.858Z,12.41
2023-03-13T18:46:34.795Z,12.33
2023-03-13T18:49:01.772Z,12.32
2023-03-13T18:51:28.636Z,12.27
2023-03-13T18:53:55.896Z,12.11
2023-03-13T18:56:26.229Z,12.00
2023-03-13T18:58:55.150Z,11.88
2023-03-13T19:01:24.276Z,11.76
2023-03-13T19:03:51.717Z,11.72
2023-03-13T19:06:35.768Z,11.68
2023-03-13T19:09:43.232Z,11.55
2023-03-13T19:12:12.110Z,11.41
2023-03-13T19:14:38.847Z,12.00
2023-03-13T19:17:07.114Z,12.24
2023-03-13T19:19:34.308Z,12.41
2023-03-13T19:22:01.164Z,12.20
2023-03-13T19:24:27.852Z,12.05
2023-03-13T19:26:58.849Z,12.02
2023-03-13T19:29:27.892Z,12.01
2023-03-13T19:31:54.815Z,11.93
2023-03-13T19:34:21.961Z,12.05
2023-03-13T19:36:49.589Z,12.12
2023-03-13T19:39:23.551Z,11.95
2023-03-13T19:41:50.584Z,11.84
2023-03-13T19:44:18.408Z,11.67
2023-03-13T19:46:45.804Z,11.55
2023-03-13T19:49:19.597Z,11.62
2023-03-13T19:51:47.053Z,11.57
2023-03-13T19:54:14.302Z,11.50
2023-03-13T19:56:43.735Z,11.47
2023-03-13T19:59:15.617Z,11.96
2023-03-13T20:01:42.510Z,11.65
2023-03-13T20:04:09.686Z,11.48
2023-03-13T20:06:37.454Z,11.28
2023-03-13T20:09:07.349Z,11.25
2023-03-13T20:11:34.139Z,11.29
2023-03-13T20:14:01.079Z,11.28
2023-03-13T20:16:30.140Z,11.18
2023-03-13T20:18:57.901Z,11.09
2023-03-13T20:21:29.048Z,11.01
2023-03-13T20:23:57.397Z,10.89
2023-03-13T20:26:25.007Z,10.90
2023-03-13T20:28:52.528Z,11.00
2023-03-13T20:31:22.321Z,11.06
2023-03-13T20:33:48.937Z,11.03
2023-03-13T20:36:19.213Z,10.93
2023-03-13T20:38:46.185Z,10.73
2023-03-13T20:41:13.077Z,10.57
2023-03-13T20:43:40.103Z,10.39
2023-03-13T20:46:09.579Z,10.20
2023-03-13T20:48:41.567Z,10.08
2023-03-13T20:51:09.174Z,10.10
2023-03-13T20:53:37.987Z,10.08
2023-03-13T20:56:07.186Z,10.23
2023-03-13T20:58:35.074Z,10.55
2023-03-13T21:01:03.001Z,10.18
2023-03-13T21:03:31.886Z,10.14
2023-03-13T21:05:58.484Z,10.10
2023-03-13T21:08:25.075Z,10.03
2023-03-13T21:10:51.758Z,9.92
2023-03-13T21:13:18.516Z,9.81
2023-03-13T21:15:45.071Z,9.72
2023-03-13T21:18:11.843Z,9.59
2023-03-13T21:20:39.308Z,9.64
2023-03-13T21:23:06.017Z,9.63
2023-03-13T21:25:32.740Z,9.60
2023-03-13T21:27:59.759Z,9.64
2023-03-13T21:30:26.414Z,9.60
2023-03-13T21:32:54.354Z,9.43
2023-03-13T21:35:21.030Z,9.28
2023-03-13T21:37:47.816Z,9.16
2023-03-13T21:40:14.959Z,9.13
2023-03-13T21:42:41.555Z,9.15
2023-03-13T21:45:09.148Z,9.00
2023-03-13T21:47:38.685Z,8.95
2023-03-13T21:50:08.380Z,8.97
2023-03-13T21:52:41.266Z,9.20
2023-03-13T21:55:11.583Z,9.79
2023-03-13T21:57:38.153Z,10.38
2023-03-13T22:00:08.344Z,10.43
2023-03-13T22:02:36.999Z,10.47
2023-03-13T22:05:04.774Z,10.31
2023-03-13T22:07:31.369Z,10.29
2023-03-13T22:09:58.209Z,10.42
2023-03-13T22:12:25.603Z,10.38
2023-03-13T22:14:53.009Z,10.20
2023-03-13T22:17:20.399Z,10.30
2023-03-13T22:19:47.302Z,10.22
2023-03-13T22:22:14.661Z,10.23
2023-03-13T22:24:41.678Z,10.25
2023-03-13T22:27:10.108Z,10.24
2023-03-13T22:29:36.650Z,10.19
2023-03-13T22:32:03.778Z,10.19
2023-03-13T22:34:30.445Z,10.35
2023-03-13T22:36:57.073Z,10.37
2023-03-13T22:39:23.800Z,10.30
2023-03-13T22:41:50.497Z,10.24
2023-03-13T22:44:17.080Z,10.30
2023-03-13T22:46:43.731Z,10.25
2023-03-13T22:49:10.320Z,10.17
2023-03-13T22:51:36.918Z,10.11
2023-03-13T22:54:03.717Z,10.01
2023-03-13T22:56:30.478Z,9.83
2023-03-13T22:58:57.388Z,9.90
2023-03-13T23:01:24.344Z,9.83
2023-03-13T23:03:50.901Z,9.77
2023-03-13T23:06:21.347Z,9.86
2023-03-13T23:08:49.080Z,10.10
2023-03-13T23:11:16.172Z,10.02
2023-03-13T23:13:42.731Z,9.82
2023-03-13T23:16:11.893Z,9.79
2023-03-13T23:18:39.344Z,9.77
2023-03-13T23:21:08.397Z,9.74
2023-03-13T23:23:35.564Z,9.68
2023-03-13T23:26:04.241Z,9.52
2023-03-13T23:28:31.180Z,9.27
2023-03-13T23:30:57.730Z,9.33
2023-03-13T23:33:24.316Z,9.20
2023-03-13T23:35:51.117Z,9.08
2023-03-13T23:38:20.615Z,9.09
2023-03-13T23:40:47.270Z,9.15
2023-03-13T23:43:14.177Z,9.10
2023-03-13T23:45:41.036Z,9.04
2023-03-13T23:48:07.673Z,8.96
2023-03-13T23:50:34.319Z,8.83
2023-03-13T23:53:00.961Z,8.79
2023-03-13T23:55:27.503Z,8.83
2023-03-13T23:57:54.164Z,8.84
